sensor_id;sensor_type;location;lat;lon;timestamp;P1;durP1;ratioP1;P2;durP2;ratioP2
635;SDS011;302;50.206;8.196;2023-04-23T00:00:43;6.00;;;5.50;;
635;SDS011;302;50.206;8.196;2023-04-23T00:03:10;6.80;;;6.20;;
635;SDS011;302;50.206;8.196;2023-04-23T00:05:36;6.68;;;6.10;;
635;SDS011;302;50.206;8.196;2023-04-23T00:08:02;6.90;;;6.27;;
635;SDS011;302;50.206;8.196;2023-04-23T00:10:27;7.17;;;6.53;;
635;SDS011;302;50.206;8.196;2023-04-23T00:12:53;7.67;;;6.87;;
635;SDS011;302;50.206;8.196;2023-04-23T00:15:18;6.20;;;5.67;;
635;SDS011;302;50.206;8.196;2023-04-23T00:17:45;7.15;;;6.35;;
635;SDS011;302;50.206;8.196;2023-04-23T00:20:11;7.22;;;6.63;;
635;SDS011;302;50.206;8.196;2023-04-23T00:22:36;6.80;;;6.20;;
635;SDS011;302;50.206;8.196;2023-04-23T00:25:01;6.35;;;5.85;;
635;SDS011;302;50.206;8.196;2023-04-23T00:27:27;6.90;;;6.20;;
635;SDS011;302;50.206;8.196;2023-04-23T00:29:52;7.50;;;6.90;;
635;SDS011;302;50.206;8.196;2023-04-23T00:32:17;6.95;;;6.25;;
635;SDS011;302;50.206;8.196;2023-04-23T00:34:42;7.57;;;6.87;;
635;SDS011;302;50.206;8.196;2023-04-23T00:37:07;7.50;;;6.90;;
635;SDS011;302;50.206;8.196;2023-04-23T00:39:32;7.00;;;6.40;;
635;SDS011;302;50.206;8.196;2023-04-23T00:41:58;6.27;;;5.73;;
635;SDS011;302;50.206;8.196;2023-04-23T00:44:26;7.72;;;6.90;;
635;SDS011;302;50.206;8.196;2023-04-23T00:46:51;6.97;;;6.27;;
635;SDS011;302;50.206;8.196;2023-04-23T00:49:17;7.50;;;6.40;;
635;SDS011;302;50.206;8.196;2023-04-23T00:51:43;7.17;;;6.10;;
635;SDS011;302;50.206;8.196;2023-04-23T00:54:08;5.85;;;5.28;;
635;SDS011;302;50.206;8.196;2023-04-23T00:56:33;7.00;;;6.40;;
635;SDS011;302;50.206;8.196;2023-04-23T00:58:59;5.38;;;4.88;;
635;SDS011;302;50.206;8.196;2023-04-23T01:01:27;6.72;;;6.13;;
635;SDS011;302;50.206;8.196;2023-04-23T01:03:52;6.75;;;6.15;;
635;SDS011;302;50.206;8.196;2023-04-23T01:06:17;6.33;;;5.70;;
635;SDS011;302;50.206;8.196;2023-04-23T01:08:43;5.87;;;5.37;;
635;SDS011;302;50.206;8.196;2023-04-23T01:11:08;6.57;;;6.03;;
635;SDS011;302;50.206;8.196;2023-04-23T01:13:34;6.30;;;5.80;;
635;SDS011;302;50.206;8.196;2023-04-23T01:16:00;9.13;;;6.90;;
635;SDS011;302;50.206;8.196;2023-04-23T01:18:26;6.70;;;6.10;;
635;SDS011;302;50.206;8.196;2023-04-23T01:20:51;6.33;;;5.73;;
635;SDS011;302;50.206;8.196;2023-04-23T01:23:17;5.90;;;5.37;;
635;SDS011;302;50.206;8.196;2023-04-23T01:25:42;6.30;;;5.70;;
635;SDS011;302;50.206;8.196;2023-04-23T01:28:07;6.00;;;5.50;;
635;SDS011;302;50.206;8.196;2023-04-23T01:30:34;5.93;;;5.43;;
635;SDS011;302;50.206;8.196;2023-04-23T01:32:59;5.80;;;5.40;;
635;SDS011;302;50.206;8.196;2023-04-23T01:35:24;6.63;;;6.03;;
635;SDS011;302;50.206;8.196;2023-04-23T01:37:50;6.10;;;5.60;;
635;SDS011;302;50.206;8.196;2023-04-23T01:40:19;6.07;;;5.53;;
635;SDS011;302;50.206;8.196;2023-04-23T01:42:44;7.13;;;6.53;;
635;SDS011;302;50.206;8.196;2023-04-23T01:45:09;6.07;;;5.57;;
635;SDS011;302;50.206;8.196;2023-04-23T01:47:34;6.63;;;6.03;;
635;SDS011;302;50.206;8.196;2023-04-23T01:50:00;5.33;;;4.93;;
635;SDS011;302;50.206;8.196;2023-04-23T01:52:25;7.37;;;6.03;;
635;SDS011;302;50.206;8.196;2023-04-23T01:54:50;6.40;;;5.80;;
635;SDS011;302;50.206;8.196;2023-04-23T01:57:15;6.03;;;5.53;;
635;SDS011;302;50.206;8.196;2023-04-23T01:59:46;6.30;;;5.80;;
635;SDS011;302;50.206;8.196;2023-04-23T02:02:12;6.70;;;6.07;;
635;SDS011;302;50.206;8.196;2023-04-23T02:04:37;6.80;;;5.87;;
635;SDS011;302;50.206;8.196;2023-04-23T02:07:03;7.20;;;6.50;;
635;SDS011;302;50.206;8.196;2023-04-23T02:09:28;5.80;;;5.30;;
635;SDS011;302;50.206;8.196;2023-04-23T02:11:53;6.83;;;5.10;;
635;SDS011;302;50.206;8.196;2023-04-23T02:14:18;6.60;;;6.10;;
635;SDS011;302;50.206;8.196;2023-04-23T02:16:44;6.67;;;6.07;;
635;SDS011;302;50.206;8.196;2023-04-23T02:19:09;6.47;;;5.87;;
635;SDS011;302;50.206;8.196;2023-04-23T02:21:35;6.20;;;5.67;;
635;SDS011;302;50.206;8.196;2023-04-23T02:24:00;6.63;;;5.70;;
635;SDS011;302;50.206;8.196;2023-04-23T02:26:25;5.93;;;5.43;;
635;SDS011;302;50.206;8.196;2023-04-23T02:28:51;6.07;;;5.57;;
635;SDS011;302;50.206;8.196;2023-04-23T02:31:16;6.00;;;5.47;;
635;SDS011;302;50.206;8.196;2023-04-23T02:33:42;5.37;;;4.87;;
635;SDS011;302;50.206;8.196;2023-04-23T02:36:07;5.77;;;5.27;;
635;SDS011;302;50.206;8.196;2023-04-23T02:38:34;5.85;;;5.30;;
635;SDS011;302;50.206;8.196;2023-04-23T02:40:59;6.38;;;5.78;;
635;SDS011;302;50.206;8.196;2023-04-23T02:43:24;6.27;;;5.67;;
635;SDS011;302;50.206;8.196;2023-04-23T02:45:50;5.38;;;4.88;;
635;SDS011;302;50.206;8.196;2023-04-23T02:48:15;6.53;;;5.05;;
635;SDS011;302;50.206;8.196;2023-04-23T02:50:40;6.30;;;5.70;;
635;SDS011;302;50.206;8.196;2023-04-23T02:53:05;5.53;;;5.03;;
635;SDS011;302;50.206;8.196;2023-04-23T02:55:30;5.80;;;5.23;;
635;SDS011;302;50.206;8.196;2023-04-23T02:57:56;5.60;;;5.20;;
635;SDS011;302;50.206;8.196;2023-04-23T03:00:21;5.73;;;5.23;;
635;SDS011;302;50.206;8.196;2023-04-23T03:02:46;5.87;;;5.37;;
635;SDS011;302;50.206;8.196;2023-04-23T03:05:11;5.27;;;4.80;;
635;SDS011;302;50.206;8.196;2023-04-23T03:07:36;5.50;;;5.00;;
635;SDS011;302;50.206;8.196;2023-04-23T03:10:02;5.90;;;5.40;;
635;SDS011;302;50.206;8.196;2023-04-23T03:12:27;6.30;;;5.70;;
635;SDS011;302;50.206;8.196;2023-04-23T03:14:54;6.57;;;5.90;;
635;SDS011;302;50.206;8.196;2023-04-23T03:17:19;6.20;;;5.60;;
635;SDS011;302;50.206;8.196;2023-04-23T03:19:45;6.22;;;5.72;;
635;SDS011;302;50.206;8.196;2023-04-23T03:22:10;6.60;;;6.00;;
635;SDS011;302;50.206;8.196;2023-04-23T03:24:35;6.60;;;6.03;;
635;SDS011;302;50.206;8.196;2023-04-23T03:27:00;6.73;;;6.03;;
635;SDS011;302;50.206;8.196;2023-04-23T03:29:25;6.47;;;5.88;;
635;SDS011;302;50.206;8.196;2023-04-23T03:31:50;6.87;;;6.27;;
635;SDS011;302;50.206;8.196;2023-04-23T03:34:16;7.40;;;6.57;;
635;SDS011;302;50.206;8.196;2023-04-23T03:36:41;7.60;;;6.80;;
635;SDS011;302;50.206;8.196;2023-04-23T03:39:08;6.60;;;6.00;;
635;SDS011;302;50.206;8.196;2023-04-23T03:41:34;8.17;;;6.67;;
635;SDS011;302;50.206;8.196;2023-04-23T03:43:59;7.05;;;6.35;;
635;SDS011;302;50.206;8.196;2023-04-23T03:46:24;6.60;;;6.00;;
635;SDS011;302;50.206;8.196;2023-04-23T03:48:49;7.35;;;6.70;;
635;SDS011;302;50.206;8.196;2023-04-23T03:51:14;7.35;;;6.65;;
635;SDS011;302;50.206;8.196;2023-04-23T03:53:40;7.00;;;6.30;;
635;SDS011;302;50.206;8.196;2023-04-23T03:56:05;7.00;;;6.40;;
635;SDS011;302;50.206;8.196;2023-04-23T03:58:30;7.50;;;6.80;;
635;SDS011;302;50.206;8.196;2023-04-23T04:00:56;7.90;;;7.10;;
635;SDS011;302;50.206;8.196;2023-04-23T04:03:21;8.30;;;7.33;;
635;SDS011;302;50.206;8.196;2023-04-23T04:05:46;7.55;;;6.85;;
635;SDS011;302;50.206;8.196;2023-04-23T04:08:11;8.23;;;6.77;;
635;SDS011;302;50.206;8.196;2023-04-23T04:10:37;8.60;;;6.95;;
635;SDS011;302;50.206;8.196;2023-04-23T04:13:02;7.30;;;6.70;;
635;SDS011;302;50.206;8.196;2023-04-23T04:15:27;8.23;;;7.43;;
635;SDS011;302;50.206;8.196;2023-04-23T04:17:53;8.98;;;7.75;;
635;SDS011;302;50.206;8.196;2023-04-23T04:20:18;8.27;;;7.47;;
635;SDS011;302;50.206;8.196;2023-04-23T04:22:43;8.07;;;7.27;;
635;SDS011;302;50.206;8.196;2023-04-23T04:25:08;8.83;;;6.87;;
635;SDS011;302;50.206;8.196;2023-04-23T04:27:34;8.63;;;7.83;;
635;SDS011;302;50.206;8.196;2023-04-23T04:29:59;7.73;;;6.93;;
635;SDS011;302;50.206;8.196;2023-04-23T04:32:25;7.93;;;7.22;;
635;SDS011;302;50.206;8.196;2023-04-23T04:34:51;7.33;;;6.73;;
635;SDS011;302;50.206;8.196;2023-04-23T04:37:16;6.70;;;6.10;;
635;SDS011;302;50.206;8.196;2023-04-23T04:39:41;6.93;;;6.23;;
635;SDS011;302;50.206;8.196;2023-04-23T04:42:07;6.70;;;5.93;;
635;SDS011;302;50.206;8.196;2023-04-23T04:44:32;6.07;;;5.57;;
635;SDS011;302;50.206;8.196;2023-04-23T04:46:57;6.47;;;5.83;;
635;SDS011;302;50.206;8.196;2023-04-23T04:49:22;6.00;;;5.50;;
635;SDS011;302;50.206;8.196;2023-04-23T04:51:47;7.53;;;6.90;;
635;SDS011;302;50.206;8.196;2023-04-23T04:54:13;7.00;;;6.30;;
635;SDS011;302;50.206;8.196;2023-04-23T04:56:38;6.10;;;5.57;;
635;SDS011;302;50.206;8.196;2023-04-23T04:59:03;6.20;;;5.70;;
635;SDS011;302;50.206;8.196;2023-04-23T05:01:28;5.57;;;5.18;;
635;SDS011;302;50.206;8.196;2023-04-23T05:03:54;5.77;;;5.27;;
635;SDS011;302;50.206;8.196;2023-04-23T05:06:19;5.77;;;5.13;;
635;SDS011;302;50.206;8.196;2023-04-23T05:08:44;6.75;;;6.15;;
635;SDS011;302;50.206;8.196;2023-04-23T05:11:15;5.53;;;5.05;;
635;SDS011;302;50.206;8.196;2023-04-23T05:13:40;5.50;;;4.97;;
635;SDS011;302;50.206;8.196;2023-04-23T05:16:06;6.27;;;5.77;;
635;SDS011;302;50.206;8.196;2023-04-23T05:18:31;4.83;;;4.43;;
635;SDS011;302;50.206;8.196;2023-04-23T05:20:56;5.20;;;4.80;;
635;SDS011;302;50.206;8.196;2023-04-23T05:23:21;4.77;;;4.47;;
635;SDS011;302;50.206;8.196;2023-04-23T05:25:46;5.50;;;5.00;;
635;SDS011;302;50.206;8.196;2023-04-23T05:28:12;5.43;;;4.93;;
635;SDS011;302;50.206;8.196;2023-04-23T05:30:37;5.60;;;4.77;;
635;SDS011;302;50.206;8.196;2023-04-23T05:33:02;5.50;;;5.00;;
635;SDS011;302;50.206;8.196;2023-04-23T05:35:27;4.63;;;4.23;;
635;SDS011;302;50.206;8.196;2023-04-23T05:37:52;4.77;;;4.37;;
635;SDS011;302;50.206;8.196;2023-04-23T05:40:17;5.93;;;5.40;;
635;SDS011;302;50.206;8.196;2023-04-23T05:42:43;6.30;;;5.80;;
635;SDS011;302;50.206;8.196;2023-04-23T05:45:08;5.65;;;5.20;;
635;SDS011;302;50.206;8.196;2023-04-23T05:47:33;6.83;;;5.80;;
635;SDS011;302;50.206;8.196;2023-04-23T05:49:58;6.77;;;6.17;;
635;SDS011;302;50.206;8.196;2023-04-23T05:52:24;7.23;;;6.63;;
635;SDS011;302;50.206;8.196;2023-04-23T05:54:49;8.03;;;7.33;;
635;SDS011;302;50.206;8.196;2023-04-23T05:57:14;7.13;;;6.43;;
635;SDS011;302;50.206;8.196;2023-04-23T05:59:39;7.80;;;7.10;;
635;SDS011;302;50.206;8.196;2023-04-23T06:02:04;8.20;;;7.40;;
635;SDS011;302;50.206;8.196;2023-04-23T06:04:30;7.40;;;6.70;;
635;SDS011;302;50.206;8.196;2023-04-23T06:06:55;8.27;;;7.57;;
635;SDS011;302;50.206;8.196;2023-04-23T06:09:20;8.17;;;7.37;;
635;SDS011;302;50.206;8.196;2023-04-23T06:11:46;8.05;;;7.32;;
635;SDS011;302;50.206;8.196;2023-04-23T06:14:11;7.70;;;7.10;;
635;SDS011;302;50.206;8.196;2023-04-23T06:16:36;8.83;;;7.93;;
635;SDS011;302;50.206;8.196;2023-04-23T06:19:02;8.53;;;7.70;;
635;SDS011;302;50.206;8.196;2023-04-23T06:21:27;7.30;;;6.70;;
635;SDS011;302;50.206;8.196;2023-04-23T06:23:52;7.17;;;6.57;;
635;SDS011;302;50.206;8.196;2023-04-23T06:26:18;8.88;;;8.00;;
635;SDS011;302;50.206;8.196;2023-04-23T06:28:44;8.23;;;7.43;;
635;SDS011;302;50.206;8.196;2023-04-23T06:31:09;7.75;;;6.95;;
635;SDS011;302;50.206;8.196;2023-04-23T06:33:35;6.90;;;6.30;;
635;SDS011;302;50.206;8.196;2023-04-23T06:36:01;7.77;;;7.07;;
635;SDS011;302;50.206;8.196;2023-04-23T06:38:26;9.23;;;7.13;;
635;SDS011;302;50.206;8.196;2023-04-23T06:40:51;6.53;;;5.93;;
635;SDS011;302;50.206;8.196;2023-04-23T06:43:17;7.90;;;7.10;;
635;SDS011;302;50.206;8.196;2023-04-23T06:45:42;6.90;;;6.30;;
635;SDS011;302;50.206;8.196;2023-04-23T06:48:07;8.23;;;7.50;;
635;SDS011;302;50.206;8.196;2023-04-23T06:50:32;7.00;;;6.40;;
635;SDS011;302;50.206;8.196;2023-04-23T06:52:57;7.63;;;7.03;;
635;SDS011;302;50.206;8.196;2023-04-23T06:55:23;6.80;;;6.20;;
635;SDS011;302;50.206;8.196;2023-04-23T06:57:52;6.80;;;6.20;;
635;SDS011;302;50.206;8.196;2023-04-23T07:00:18;6.60;;;6.10;;
635;SDS011;302;50.206;8.196;2023-04-23T07:02:43;7.03;;;6.50;;
635;SDS011;302;50.206;8.196;2023-04-23T07:05:09;6.97;;;6.37;;
635;SDS011;302;50.206;8.196;2023-04-23T07:07:35;6.83;;;6.23;;
635;SDS011;302;50.206;8.196;2023-04-23T07:10:02;6.55;;;6.05;;
635;SDS011;302;50.206;8.196;2023-04-23T07:12:28;6.60;;;6.10;;
635;SDS011;302;50.206;8.196;2023-04-23T07:14:53;6.30;;;5.80;;
635;SDS011;302;50.206;8.196;2023-04-23T07:17:18;6.83;;;6.13;;
635;SDS011;302;50.206;8.196;2023-04-23T07:19:43;6.65;;;5.90;;
635;SDS011;302;50.206;8.196;2023-04-23T07:22:08;7.27;;;6.67;;
635;SDS011;302;50.206;8.196;2023-04-23T07:24:34;6.37;;;5.77;;
635;SDS011;302;50.206;8.196;2023-04-23T07:26:59;7.13;;;6.50;;
635;SDS011;302;50.206;8.196;2023-04-23T07:29:24;6.87;;;6.27;;
635;SDS011;302;50.206;8.196;2023-04-23T07:31:49;6.32;;;5.60;;
635;SDS011;302;50.206;8.196;2023-04-23T07:34:15;6.50;;;5.90;;
635;SDS011;302;50.206;8.196;2023-04-23T07:36:40;6.70;;;6.10;;
635;SDS011;302;50.206;8.196;2023-04-23T07:39:05;6.23;;;5.80;;
635;SDS011;302;50.206;8.196;2023-04-23T07:41:31;7.47;;;6.78;;
635;SDS011;302;50.206;8.196;2023-04-23T07:43:56;5.87;;;5.37;;
635;SDS011;302;50.206;8.196;2023-04-23T07:46:21;6.93;;;6.30;;
635;SDS011;302;50.206;8.196;2023-04-23T07:48:46;6.97;;;6.00;;
635;SDS011;302;50.206;8.196;2023-04-23T07:51:11;7.63;;;6.85;;
635;SDS011;302;50.206;8.196;2023-04-23T07:53:36;7.53;;;6.83;;
635;SDS011;302;50.206;8.196;2023-04-23T07:56:01;5.70;;;5.30;;
635;SDS011;302;50.206;8.196;2023-04-23T07:58:27;7.50;;;6.10;;
635;SDS011;302;50.206;8.196;2023-04-23T08:00:52;6.65;;;5.43;;
635;SDS011;302;50.206;8.196;2023-04-23T08:03:17;7.60;;;5.90;;
635;SDS011;302;50.206;8.196;2023-04-23T08:05:42;6.40;;;5.80;;
635;SDS011;302;50.206;8.196;2023-04-23T08:08:07;6.00;;;5.00;;
635;SDS011;302;50.206;8.196;2023-04-23T08:10:33;5.63;;;5.13;;
635;SDS011;302;50.206;8.196;2023-04-23T08:12:59;5.47;;;5.05;;
635;SDS011;302;50.206;8.196;2023-04-23T08:15:24;5.40;;;4.97;;
635;SDS011;302;50.206;8.196;2023-04-23T08:17:49;6.00;;;5.50;;
635;SDS011;302;50.206;8.196;2023-04-23T08:20:15;7.57;;;6.97;;
635;SDS011;302;50.206;8.196;2023-04-23T08:22:40;7.17;;;6.50;;
635;SDS011;302;50.206;8.196;2023-04-23T08:25:05;6.50;;;5.90;;
635;SDS011;302;50.206;8.196;2023-04-23T08:27:30;6.93;;;6.30;;
635;SDS011;302;50.206;8.196;2023-04-23T08:29:55;5.10;;;4.67;;
635;SDS011;302;50.206;8.196;2023-04-23T08:32:21;7.83;;;6.60;;
635;SDS011;302;50.206;8.196;2023-04-23T08:34:46;6.63;;;6.03;;
635;SDS011;302;50.206;8.196;2023-04-23T08:37:11;6.13;;;5.57;;
635;SDS011;302;50.206;8.196;2023-04-23T08:39:36;5.23;;;4.83;;
635;SDS011;302;50.206;8.196;2023-04-23T08:42:04;6.18;;;5.57;;
635;SDS011;302;50.206;8.196;2023-04-23T08:44:29;5.60;;;5.10;;
635;SDS011;302;50.206;8.196;2023-04-23T08:46:55;6.20;;;5.70;;
635;SDS011;302;50.206;8.196;2023-04-23T08:49:22;5.88;;;5.30;;
635;SDS011;302;50.206;8.196;2023-04-23T08:51:49;6.53;;;5.88;;
635;SDS011;302;50.206;8.196;2023-04-23T08:54:17;6.93;;;6.32;;
635;SDS011;302;50.206;8.196;2023-04-23T08:56:43;5.78;;;5.28;;
635;SDS011;302;50.206;8.196;2023-04-23T08:59:09;7.40;;;5.97;;
635;SDS011;302;50.206;8.196;2023-04-23T09:01:34;5.70;;;5.20;;
635;SDS011;302;50.206;8.196;2023-04-23T09:04:00;6.20;;;5.60;;
635;SDS011;302;50.206;8.196;2023-04-23T09:06:25;6.47;;;5.57;;
635;SDS011;302;50.206;8.196;2023-04-23T09:08:50;7.00;;;6.40;;
635;SDS011;302;50.206;8.196;2023-04-23T09:11:17;6.47;;;5.88;;
635;SDS011;302;50.206;8.196;2023-04-23T09:13:42;4.57;;;4.17;;
635;SDS011;302;50.206;8.196;2023-04-23T09:16:07;5.90;;;5.40;;
635;SDS011;302;50.206;8.196;2023-04-23T09:18:34;5.95;;;5.45;;
635;SDS011;302;50.206;8.196;2023-04-23T09:20:59;6.40;;;5.90;;
635;SDS011;302;50.206;8.196;2023-04-23T09:23:25;6.75;;;6.05;;
635;SDS011;302;50.206;8.196;2023-04-23T09:25:50;6.80;;;6.05;;
635;SDS011;302;50.206;8.196;2023-04-23T09:28:16;6.65;;;6.15;;
635;SDS011;302;50.206;8.196;2023-04-23T09:30:42;6.07;;;5.57;;
635;SDS011;302;50.206;8.196;2023-04-23T09:33:09;6.10;;;5.60;;
635;SDS011;302;50.206;8.196;2023-04-23T09:35:35;6.70;;;6.10;;
635;SDS011;302;50.206;8.196;2023-04-23T09:38:01;7.10;;;6.50;;
635;SDS011;302;50.206;8.196;2023-04-23T09:40:31;6.45;;;5.75;;
635;SDS011;302;50.206;8.196;2023-04-23T09:42:56;7.73;;;4.97;;
635;SDS011;302;50.206;8.196;2023-04-23T09:45:22;5.28;;;4.88;;
635;SDS011;302;50.206;8.196;2023-04-23T09:47:50;4.88;;;4.50;;
635;SDS011;302;50.206;8.196;2023-04-23T09:50:16;4.22;;;3.92;;
635;SDS011;302;50.206;8.196;2023-04-23T09:52:41;4.73;;;4.33;;
635;SDS011;302;50.206;8.196;2023-04-23T09:55:06;4.40;;;4.00;;
635;SDS011;302;50.206;8.196;2023-04-23T09:57:35;4.50;;;3.73;;
635;SDS011;302;50.206;8.196;2023-04-23T10:00:11;5.40;;;4.95;;
635;SDS011;302;50.206;8.196;2023-04-23T10:02:36;4.22;;;3.83;;
635;SDS011;302;50.206;8.196;2023-04-23T10:05:01;3.90;;;3.70;;
635;SDS011;302;50.206;8.196;2023-04-23T10:07:37;4.05;;;3.10;;
635;SDS011;302;50.206;8.196;2023-04-23T10:10:03;3.73;;;3.43;;
635;SDS011;302;50.206;8.196;2023-04-23T10:12:28;3.63;;;3.33;;
635;SDS011;302;50.206;8.196;2023-04-23T10:14:53;3.30;;;3.00;;
635;SDS011;302;50.206;8.196;2023-04-23T10:17:21;3.70;;;3.40;;
635;SDS011;302;50.206;8.196;2023-04-23T10:19:46;3.57;;;3.10;;
635;SDS011;302;50.206;8.196;2023-04-23T10:22:12;3.08;;;2.80;;
635;SDS011;302;50.206;8.196;2023-04-23T10:24:40;3.20;;;3.00;;
635;SDS011;302;50.206;8.196;2023-04-23T10:27:07;4.03;;;2.60;;
635;SDS011;302;50.206;8.196;2023-04-23T10:29:34;3.00;;;2.80;;
635;SDS011;302;50.206;8.196;2023-04-23T10:32:03;3.47;;;2.97;;
635;SDS011;302;50.206;8.196;2023-04-23T10:34:29;3.00;;;2.80;;
635;SDS011;302;50.206;8.196;2023-04-23T10:36:55;3.13;;;2.93;;
635;SDS011;302;50.206;8.196;2023-04-23T10:39:21;3.17;;;2.58;;
635;SDS011;302;50.206;8.196;2023-04-23T10:41:47;2.90;;;2.70;;
635;SDS011;302;50.206;8.196;2023-04-23T10:44:13;3.20;;;2.60;;
635;SDS011;302;50.206;8.196;2023-04-23T10:46:46;2.85;;;2.65;;
635;SDS011;302;50.206;8.196;2023-04-23T10:49:14;3.22;;;2.97;;
635;SDS011;302;50.206;8.196;2023-04-23T10:51:40;2.85;;;2.65;;
635;SDS011;302;50.206;8.196;2023-04-23T10:54:08;3.10;;;2.67;;
635;SDS011;302;50.206;8.196;2023-04-23T10:56:36;3.00;;;2.70;;
635;SDS011;302;50.206;8.196;2023-04-23T10:59:01;5.10;;;3.65;;
635;SDS011;302;50.206;8.196;2023-04-23T11:01:29;2.55;;;2.35;;
635;SDS011;302;50.206;8.196;2023-04-23T11:03:55;3.50;;;3.27;;
635;SDS011;302;50.206;8.196;2023-04-23T11:09:22;2.72;;;2.53;;
635;SDS011;302;50.206;8.196;2023-04-23T11:11:48;2.78;;;2.58;;
635;SDS011;302;50.206;8.196;2023-04-23T11:14:14;2.90;;;2.70;;
635;SDS011;302;50.206;8.196;2023-04-23T11:16:39;2.90;;;2.70;;
635;SDS011;302;50.206;8.196;2023-04-23T11:19:08;3.73;;;2.70;;
635;SDS011;302;50.206;8.196;2023-04-23T11:24:21;2.40;;;2.20;;
635;SDS011;302;50.206;8.196;2023-04-23T11:26:46;2.95;;;2.75;;
635;SDS011;302;50.206;8.196;2023-04-23T11:29:12;2.30;;;2.10;;
635;SDS011;302;50.206;8.196;2023-04-23T11:31:39;2.75;;;2.55;;
635;SDS011;302;50.206;8.196;2023-04-23T11:34:04;2.60;;;2.50;;
635;SDS011;302;50.206;8.196;2023-04-23T11:36:30;2.70;;;2.50;;
635;SDS011;302;50.206;8.196;2023-04-23T11:38:56;2.70;;;2.50;;
635;SDS011;302;50.206;8.196;2023-04-23T11:41:22;3.03;;;2.83;;
635;SDS011;302;50.206;8.196;2023-04-23T11:43:47;5.67;;;2.40;;
635;SDS011;302;50.206;8.196;2023-04-23T11:46:13;2.55;;;2.35;;
635;SDS011;302;50.206;8.196;2023-04-23T11:48:38;1.92;;;1.83;;
635;SDS011;302;50.206;8.196;2023-04-23T11:51:03;2.40;;;2.25;;
635;SDS011;302;50.206;8.196;2023-04-23T11:53:28;2.22;;;2.10;;
635;SDS011;302;50.206;8.196;2023-04-23T11:55:54;2.50;;;2.25;;
635;SDS011;302;50.206;8.196;2023-04-23T11:58:19;2.57;;;2.20;;
635;SDS011;302;50.206;8.196;2023-04-23T12:00:44;2.05;;;1.95;;
635;SDS011;302;50.206;8.196;2023-04-23T12:03:09;2.08;;;1.98;;
635;SDS011;302;50.206;8.196;2023-04-23T12:05:40;1.77;;;1.67;;
635;SDS011;302;50.206;8.196;2023-04-23T12:08:08;2.45;;;2.25;;
635;SDS011;302;50.206;8.196;2023-04-23T12:10:40;2.10;;;2.00;;
635;SDS011;302;50.206;8.196;2023-04-23T12:13:05;2.45;;;2.25;;
635;SDS011;302;50.206;8.196;2023-04-23T12:15:30;1.95;;;1.85;;
635;SDS011;302;50.206;8.196;2023-04-23T12:18:08;2.33;;;2.13;;
635;SDS011;302;50.206;8.196;2023-04-23T12:20:33;2.80;;;2.58;;
635;SDS011;302;50.206;8.196;2023-04-23T12:23:03;2.10;;;2.00;;
635;SDS011;302;50.206;8.196;2023-04-23T12:25:28;2.65;;;2.45;;
635;SDS011;302;50.206;8.196;2023-04-23T12:27:53;3.55;;;2.72;;
635;SDS011;302;50.206;8.196;2023-04-23T12:30:25;2.60;;;2.50;;
635;SDS011;302;50.206;8.196;2023-04-23T12:32:51;2.40;;;2.20;;
635;SDS011;302;50.206;8.196;2023-04-23T12:35:35;4.15;;;2.60;;
635;SDS011;302;50.206;8.196;2023-04-23T12:38:03;2.05;;;1.95;;
635;SDS011;302;50.206;8.196;2023-04-23T12:40:28;1.95;;;1.83;;
635;SDS011;302;50.206;8.196;2023-04-23T12:42:53;2.70;;;2.50;;
635;SDS011;302;50.206;8.196;2023-04-23T12:45:18;3.85;;;3.53;;
635;SDS011;302;50.206;8.196;2023-04-23T12:47:43;3.13;;;2.93;;
635;SDS011;302;50.206;8.196;2023-04-23T12:50:09;2.93;;;2.73;;
635;SDS011;302;50.206;8.196;2023-04-23T12:52:34;3.13;;;2.93;;
635;SDS011;302;50.206;8.196;2023-04-23T12:54:59;3.40;;;3.20;;
635;SDS011;302;50.206;8.196;2023-04-23T12:57:25;3.37;;;3.10;;
635;SDS011;302;50.206;8.196;2023-04-23T12:59:51;2.75;;;2.55;;
635;SDS011;302;50.206;8.196;2023-04-23T13:02:18;2.87;;;2.67;;
635;SDS011;302;50.206;8.196;2023-04-23T13:04:43;2.60;;;2.40;;
635;SDS011;302;50.206;8.196;2023-04-23T13:07:08;2.30;;;2.20;;
635;SDS011;302;50.206;8.196;2023-04-23T13:09:34;2.93;;;2.37;;
635;SDS011;302;50.206;8.196;2023-04-23T13:11:59;2.70;;;2.50;;
635;SDS011;302;50.206;8.196;2023-04-23T13:14:26;3.80;;;2.60;;
635;SDS011;302;50.206;8.196;2023-04-23T13:16:51;1.73;;;1.63;;
635;SDS011;302;50.206;8.196;2023-04-23T13:19:17;2.83;;;2.15;;
635;SDS011;302;50.206;8.196;2023-04-23T13:21:42;2.70;;;2.20;;
635;SDS011;302;50.206;8.196;2023-04-23T13:24:07;5.13;;;2.55;;
635;SDS011;302;50.206;8.196;2023-04-23T13:26:32;2.90;;;2.47;;
635;SDS011;302;50.206;8.196;2023-04-23T13:28:58;3.03;;;2.73;;
635;SDS011;302;50.206;8.196;2023-04-23T13:31:23;2.80;;;2.60;;
635;SDS011;302;50.206;8.196;2023-04-23T13:33:48;3.30;;;2.97;;
635;SDS011;302;50.206;8.196;2023-04-23T13:36:13;3.65;;;2.85;;
635;SDS011;302;50.206;8.196;2023-04-23T13:38:38;2.27;;;2.10;;
635;SDS011;302;50.206;8.196;2023-04-23T13:41:04;2.80;;;2.60;;
635;SDS011;302;50.206;8.196;2023-04-23T13:43:29;4.27;;;2.57;;
635;SDS011;302;50.206;8.196;2023-04-23T13:45:54;2.40;;;2.20;;
635;SDS011;302;50.206;8.196;2023-04-23T13:48:19;2.53;;;2.33;;
635;SDS011;302;50.206;8.196;2023-04-23T13:50:45;2.70;;;2.50;;
635;SDS011;302;50.206;8.196;2023-04-23T13:53:10;2.60;;;2.40;;
635;SDS011;302;50.206;8.196;2023-04-23T13:55:36;2.67;;;2.47;;
635;SDS011;302;50.206;8.196;2023-04-23T13:58:02;2.80;;;2.60;;
635;SDS011;302;50.206;8.196;2023-04-23T14:00:27;2.90;;;2.70;;
635;SDS011;302;50.206;8.196;2023-04-23T14:02:53;2.50;;;2.30;;
635;SDS011;302;50.206;8.196;2023-04-23T14:05:18;2.60;;;2.20;;
635;SDS011;302;50.206;8.196;2023-04-23T14:07:43;2.77;;;2.57;;
635;SDS011;302;50.206;8.196;2023-04-23T14:10:09;2.37;;;2.17;;
635;SDS011;302;50.206;8.196;2023-04-23T14:12:34;2.63;;;2.43;;
635;SDS011;302;50.206;8.196;2023-04-23T14:15:00;2.17;;;2.03;;
635;SDS011;302;50.206;8.196;2023-04-23T14:17:25;2.50;;;2.40;;
635;SDS011;302;50.206;8.196;2023-04-23T14:19:50;2.63;;;2.43;;
635;SDS011;302;50.206;8.196;2023-04-23T14:22:15;2.50;;;2.30;;
635;SDS011;302;50.206;8.196;2023-04-23T14:24:44;2.10;;;1.87;;
635;SDS011;302;50.206;8.196;2023-04-23T14:27:09;1.97;;;1.77;;
635;SDS011;302;50.206;8.196;2023-04-23T14:29:35;4.10;;;1.97;;
635;SDS011;302;50.206;8.196;2023-04-23T14:32:03;1.97;;;1.87;;
635;SDS011;302;50.206;8.196;2023-04-23T14:34:30;1.93;;;1.83;;
635;SDS011;302;50.206;8.196;2023-04-23T14:36:55;2.63;;;2.00;;
635;SDS011;302;50.206;8.196;2023-04-23T14:39:20;1.90;;;1.80;;
635;SDS011;302;50.206;8.196;2023-04-23T14:41:46;2.00;;;1.90;;
635;SDS011;302;50.206;8.196;2023-04-23T14:44:11;2.30;;;2.20;;
635;SDS011;302;50.206;8.196;2023-04-23T14:46:36;1.83;;;1.73;;
635;SDS011;302;50.206;8.196;2023-04-23T14:49:01;2.00;;;1.90;;
635;SDS011;302;50.206;8.196;2023-04-23T14:51:27;1.83;;;1.73;;
635;SDS011;302;50.206;8.196;2023-04-23T14:53:52;4.50;;;2.63;;
635;SDS011;302;50.206;8.196;2023-04-23T14:56:17;2.45;;;2.25;;
635;SDS011;302;50.206;8.196;2023-04-23T14:58:42;2.00;;;1.90;;
635;SDS011;302;50.206;8.196;2023-04-23T15:01:07;1.93;;;1.83;;
635;SDS011;302;50.206;8.196;2023-04-23T15:03:33;2.27;;;2.07;;
635;SDS011;302;50.206;8.196;2023-04-23T15:05:58;2.20;;;2.00;;
635;SDS011;302;50.206;8.196;2023-04-23T15:08:23;2.60;;;2.33;;
635;SDS011;302;50.206;8.196;2023-04-23T15:10:48;2.00;;;1.90;;
635;SDS011;302;50.206;8.196;2023-04-23T15:15:42;2.10;;;2.00;;
635;SDS011;302;50.206;8.196;2023-04-23T15:18:12;2.53;;;2.30;;
635;SDS011;302;50.206;8.196;2023-04-23T15:20:37;2.60;;;2.10;;
635;SDS011;302;50.206;8.196;2023-04-23T15:23:02;1.93;;;1.83;;
635;SDS011;302;50.206;8.196;2023-04-23T15:25:28;2.03;;;1.90;;
635;SDS011;302;50.206;8.196;2023-04-23T15:27:53;2.23;;;1.90;;
635;SDS011;302;50.206;8.196;2023-04-23T15:30:22;1.85;;;1.75;;
635;SDS011;302;50.206;8.196;2023-04-23T15:32:47;2.20;;;2.10;;
635;SDS011;302;50.206;8.196;2023-04-23T15:35:12;4.28;;;2.50;;
635;SDS011;302;50.206;8.196;2023-04-23T15:37:37;2.35;;;2.15;;
635;SDS011;302;50.206;8.196;2023-04-23T15:40:02;2.53;;;2.30;;
635;SDS011;302;50.206;8.196;2023-04-23T15:42:28;2.10;;;1.90;;